sensor_id;sensor_type;location;lat;lon;timestamp;temperature;humidity
4453;DHT22;2239;48.152;11.584;2024-01-27T00:01:34;5.20;99.90
4453;DHT22;2239;48.152;11.584;2024-01-27T00:04:00;5.20;99.90
4453;DHT22;2239;48.152;11.584;2024-01-27T00:06:26;5.20;99.90
4453;DHT22;2239;48.152;11.584;2024-01-27T00:08:51;5.10;99.90
4453;DHT22;2239;48.152;11.584;2024-01-27T00:11:17;5.10;99.90
4453;DHT22;2239;48.152;11.584;2024-01-27T00:13:42;5.10;99.90
4453;DHT22;2239;48.152;11.584;2024-01-27T00:16:09;5.10;99.90
4453;DHT22;2239;48.152;11.584;2024-01-27T00:18:38;5.10;99.90
4453;DHT22;2239;48.152;11.584;2024-01-27T00:21:05;5.10;99.90
4453;DHT22;2239;48.152;11.584;2024-01-27T00:23:32;5.00;99.90
4453;DHT22;2239;48.152;11.584;2024-01-27T00:25:58;5.00;99.90
4453;DHT22;2239;48.152;11.584;2024-01-27T00:28:24;5.00;99.90
4453;DHT22;2239;48.152;11.584;2024-01-27T00:30:49;5.00;99.90
4453;DHT22;2239;48.152;11.584;2024-01-27T00:33:15;5.00;99.90
4453;DHT22;2239;48.152;11.584;2024-01-27T00:35:40;5.00;99.90
4453;DHT22;2239;48.152;11.584;2024-01-27T00:38:06;4.90;99.90
4453;DHT22;2239;48.152;11.584;2024-01-27T00:40:31;4.90;99.90
4453;DHT22;2239;48.152;11.584;2024-01-27T00:42:57;4.90;99.90
4453;DHT22;2239;48.152;11.584;2024-01-27T00:45:22;4.90;99.90
4453;DHT22;2239;48.152;11.584;2024-01-27T00:47:49;4.90;99.90
4453;DHT22;2239;48.152;11.584;2024-01-27T00:50:15;4.90;99.90
4453;DHT22;2239;48.152;11.584;2024-01-27T00:52:41;4.80;99.90
4453;DHT22;2239;48.152;11.584;2024-01-27T00:55:07;4.80;99.90
4453;DHT22;2239;48.152;11.584;2024-01-27T00:57:32;4.70;99.90
4453;DHT22;2239;48.152;11.584;2024-01-27T00:59:58;4.70;99.90
4453;DHT22;2239;48.152;11.584;2024-01-27T01:02:23;4.80;99.90
4453;DHT22;2239;48.152;11.584;2024-01-27T01:04:49;4.80;99.90
4453;DHT22;2239;48.152;11.584;2024-01-27T01:07:15;4.70;99.90
4453;DHT22;2239;48.152;11.584;2024-01-27T01:09:41;4.70;99.90
4453;DHT22;2239;48.152;11.584;2024-01-27T01:12:06;4.60;99.90
4453;DHT22;2239;48.152;11.584;2024-01-27T01:14:32;4.60;99.90
4453;DHT22;2239;48.152;11.584;2024-01-27T01:16:57;4.50;99.90
4453;DHT22;2239;48.152;11.584;2024-01-27T01:19:23;4.60;99.90
4453;DHT22;2239;48.152;11.584;2024-01-27T01:21:49;4.50;99.90
4453;DHT22;2239;48.152;11.584;2024-01-27T01:24:14;4.40;99.90
4453;DHT22;2239;48.152;11.584;2024-01-27T01:26:40;4.40;99.90
4453;DHT22;2239;48.152;11.584;2024-01-27T01:29:06;4.40;99.90
4453;DHT22;2239;48.152;11.584;2024-01-27T01:31:31;4.40;99.90
4453;DHT22;2239;48.152;11.584;2024-01-27T01:33:57;4.40;99.90
4453;DHT22;2239;48.152;11.584;2024-01-27T01:36:23;4.40;99.90
4453;DHT22;2239;48.152;11.584;2024-01-27T01:38:49;4.30;99.90
4453;DHT22;2239;48.152;11.584;2024-01-27T01:41:14;4.40;99.90
4453;DHT22;2239;48.152;11.584;2024-01-27T01:43:40;4.40;99.90
4453;DHT22;2239;48.152;11.584;2024-01-27T01:46:05;4.40;99.90
4453;DHT22;2239;48.152;11.584;2024-01-27T01:48:31;4.40;99.90
4453;DHT22;2239;48.152;11.584;2024-01-27T01:50:58;4.30;99.90
4453;DHT22;2239;48.152;11.584;2024-01-27T01:53:25;4.30;99.90
4453;DHT22;2239;48.152;11.584;2024-01-27T01:55:52;4.30;99.90
4453;DHT22;2239;48.152;11.584;2024-01-27T01:58:18;4.20;99.90
4453;DHT22;2239;48.152;11.584;2024-01-27T02:00:43;4.20;99.90
4453;DHT22;2239;48.152;11.584;2024-01-27T02:03:13;4.20;99.90
4453;DHT22;2239;48.152;11.584;2024-01-27T02:05:39;4.10;99.90
4453;DHT22;2239;48.152;11.584;2024-01-27T02:08:05;4.10;99.90
4453;DHT22;2239;48.152;11.584;2024-01-27T02:10:31;4.10;99.90
4453;DHT22;2239;48.152;11.584;2024-01-27T02:13:03;4.10;99.90
4453;DHT22;2239;48.152;11.584;2024-01-27T02:15:29;4.10;99.90
4453;DHT22;2239;48.152;11.584;2024-01-27T02:17:54;4.00;99.90
4453;DHT22;2239;48.152;11.584;2024-01-27T02:20:20;4.00;99.90
4453;DHT22;2239;48.152;11.584;2024-01-27T02:22:45;4.00;99.90
4453;DHT22;2239;48.152;11.584;2024-01-27T02:25:11;4.00;99.90
4453;DHT22;2239;48.152;11.584;2024-01-27T02:27:36;4.00;99.90
4453;DHT22;2239;48.152;11.584;2024-01-27T02:30:02;4.00;99.90
4453;DHT22;2239;48.152;11.584;2024-01-27T02:32:28;4.00;99.90
4453;DHT22;2239;48.152;11.584;2024-01-27T02:34:53;4.00;99.90
4453;DHT22;2239;48.152;11.584;2024-01-27T02:37:19;3.90;99.90
4453;DHT22;2239;48.152;11.584;2024-01-27T02:39:44;3.90;99.90
4453;DHT22;2239;48.152;11.584;2024-01-27T02:42:10;3.90;99.90
4453;DHT22;2239;48.152;11.584;2024-01-27T02:44:35;3.90;99.90
4453;DHT22;2239;48.152;11.584;2024-01-27T02:47:01;3.80;99.90
4453;DHT22;2239;48.152;11.584;2024-01-27T02:49:27;3.80;99.90
4453;DHT22;2239;48.152;11.584;2024-01-27T02:51:52;3.80;99.90
4453;DHT22;2239;48.152;11.584;2024-01-27T02:54:18;3.80;99.90
4453;DHT22;2239;48.152;11.584;2024-01-27T02:56:43;3.80;99.90
4453;DHT22;2239;48.152;11.584;2024-01-27T02:59:09;3.80;99.90
4453;DHT22;2239;48.152;11.584;2024-01-27T03:01:36;3.80;99.90
4453;DHT22;2239;48.152;11.584;2024-01-27T03:04:02;3.80;99.90
4453;DHT22;2239;48.152;11.584;2024-01-27T03:06:29;3.80;99.90
4453;DHT22;2239;48.152;11.584;2024-01-27T03:08:54;3.80;99.90
4453;DHT22;2239;48.152;11.584;2024-01-27T03:11:20;3.80;99.90
4453;DHT22;2239;48.152;11.584;2024-01-27T03:13:45;3.70;99.90
4453;DHT22;2239;48.152;11.584;2024-01-27T03:16:11;3.70;99.90
4453;DHT22;2239;48.152;11.584;2024-01-27T03:18:37;3.70;99.90
4453;DHT22;2239;48.152;11.584;2024-01-27T03:21:03;3.80;99.90
4453;DHT22;2239;48.152;11.584;2024-01-27T03:23:29;3.80;99.90
4453;DHT22;2239;48.152;11.584;2024-01-27T03:25:54;3.70;99.90
4453;DHT22;2239;48.152;11.584;2024-01-27T03:28:20;3.70;99.90
4453;DHT22;2239;48.152;11.584;2024-01-27T03:30:46;3.70;99.90
4453;DHT22;2239;48.152;11.584;2024-01-27T03:33:11;3.70;99.90
4453;DHT22;2239;48.152;11.584;2024-01-27T03:35:39;3.70;99.90
4453;DHT22;2239;48.152;11.584;2024-01-27T03:38:05;3.70;99.90
4453;DHT22;2239;48.152;11.584;2024-01-27T03:40:31;3.70;99.90
4453;DHT22;2239;48.152;11.584;2024-01-27T03:42:56;3.70;99.90
4453;DHT22;2239;48.152;11.584;2024-01-27T03:45:22;3.70;99.90
4453;DHT22;2239;48.152;11.584;2024-01-27T03:47:47;3.60;99.90
4453;DHT22;2239;48.152;11.584;2024-01-27T03:50:13;3.60;99.90
4453;DHT22;2239;48.152;11.584;2024-01-27T03:52:39;3.60;99.90
4453;DHT22;2239;48.152;11.584;2024-01-27T03:55:05;3.60;99.90
4453;DHT22;2239;48.152;11.584;2024-01-27T03:57:30;3.50;99.90
4453;DHT22;2239;48.152;11.584;2024-01-27T03:59:56;3.50;99.90
4453;DHT22;2239;48.152;11.584;2024-01-27T04:02:22;3.60;99.90
4453;DHT22;2239;48.152;11.584;2024-01-27T04:04:47;3.50;99.90
4453;DHT22;2239;48.152;11.584;2024-01-27T04:07:13;3.50;99.90
4453;DHT22;2239;48.152;11.584;2024-01-27T04:09:38;3.50;99.90
4453;DHT22;2239;48.152;11.584;2024-01-27T04:12:04;3.50;99.90
4453;DHT22;2239;48.152;11.584;2024-01-27T04:14:30;3.50;99.90
4453;DHT22;2239;48.152;11.584;2024-01-27T04:16:55;3.40;99.90
4453;DHT22;2239;48.152;11.584;2024-01-27T04:19:21;3.40;99.90
4453;DHT22;2239;48.152;11.584;2024-01-27T04:21:46;3.40;99.90
4453;DHT22;2239;48.152;11.584;2024-01-27T04:24:12;3.40;99.90
4453;DHT22;2239;48.152;11.584;2024-01-27T04:26:38;3.40;99.90
4453;DHT22;2239;48.152;11.584;2024-01-27T04:29:03;3.40;99.90
4453;DHT22;2239;48.152;11.584;2024-01-27T04:31:29;3.30;99.90
4453;DHT22;2239;48.152;11.584;2024-01-27T04:33:56;3.30;99.90
4453;DHT22;2239;48.152;11.584;2024-01-27T04:36:26;3.30;99.90
4453;DHT22;2239;48.152;11.584;2024-01-27T04:38:52;3.30;99.90
4453;DHT22;2239;48.152;11.584;2024-01-27T04:41:18;3.30;99.90
4453;DHT22;2239;48.152;11.584;2024-01-27T04:43:43;3.30;99.90
4453;DHT22;2239;48.152;11.584;2024-01-27T04:46:09;3.30;99.90
4453;DHT22;2239;48.152;11.584;2024-01-27T04:48:34;3.30;99.90
4453;DHT22;2239;48.152;11.584;2024-01-27T04:51:00;3.30;99.90
4453;DHT22;2239;48.152;11.584;2024-01-27T04:53:25;3.30;99.90
4453;DHT22;2239;48.152;11.584;2024-01-27T04:55:51;3.30;99.90
4453;DHT22;2239;48.152;11.584;2024-01-27T04:58:16;3.30;99.90
4453;DHT22;2239;48.152;11.584;2024-01-27T05:00:42;3.30;99.90
4453;DHT22;2239;48.152;11.584;2024-01-27T05:03:07;3.30;99.90
4453;DHT22;2239;48.152;11.584;2024-01-27T05:05:40;3.30;99.90
4453;DHT22;2239;48.152;11.584;2024-01-27T05:08:06;3.20;99.90
4453;DHT22;2239;48.152;11.584;2024-01-27T05:10:32;3.20;99.90
4453;DHT22;2239;48.152;11.584;2024-01-27T05:12:57;3.30;99.90
4453;DHT22;2239;48.152;11.584;2024-01-27T05:15:23;3.20;99.90
4453;DHT22;2239;48.152;11.584;2024-01-27T05:17:48;3.20;99.90
4453;DHT22;2239;48.152;11.584;2024-01-27T05:20:14;3.20;99.90
4453;DHT22;2239;48.152;11.584;2024-01-27T05:22:39;3.20;99.90
4453;DHT22;2239;48.152;11.584;2024-01-27T05:25:05;3.20;99.90
4453;DHT22;2239;48.152;11.584;2024-01-27T05:27:31;3.20;99.90
4453;DHT22;2239;48.152;11.584;2024-01-27T05:29:56;3.20;99.90
4453;DHT22;2239;48.152;11.584;2024-01-27T05:32:22;3.20;99.90
4453;DHT22;2239;48.152;11.584;2024-01-27T05:34:47;3.10;99.90
4453;DHT22;2239;48.152;11.584;2024-01-27T05:37:13;3.20;99.90
4453;DHT22;2239;48.152;11.584;2024-01-27T05:39:38;3.10;99.90
4453;DHT22;2239;48.152;11.584;2024-01-27T05:42:05;3.10;99.90
4453;DHT22;2239;48.152;11.584;2024-01-27T05:44:30;3.10;99.90
4453;DHT22;2239;48.152;11.584;2024-01-27T05:46:56;3.20;99.90
4453;DHT22;2239;48.152;11.584;2024-01-27T05:49:21;3.10;99.90
4453;DHT22;2239;48.152;11.584;2024-01-27T05:51:47;3.10;99.90
4453;DHT22;2239;48.152;11.584;2024-01-27T05:54:13;3.10;99.90
4453;DHT22;2239;48.152;11.584;2024-01-27T05:56:42;3.10;99.90
4453;DHT22;2239;48.152;11.584;2024-01-27T05:59:07;3.10;99.90
4453;DHT22;2239;48.152;11.584;2024-01-27T06:01:33;3.10;99.90
4453;DHT22;2239;48.152;11.584;2024-01-27T06:03:58;3.00;99.90
4453;DHT22;2239;48.152;11.584;2024-01-27T06:06:24;3.00;99.90
4453;DHT22;2239;48.152;11.584;2024-01-27T06:08:49;3.00;99.90
4453;DHT22;2239;48.152;11.584;2024-01-27T06:11:23;3.00;99.90
4453;DHT22;2239;48.152;11.584;2024-01-27T06:13:49;3.00;99.90
4453;DHT22;2239;48.152;11.584;2024-01-27T06:16:15;3.00;99.90
4453;DHT22;2239;48.152;11.584;2024-01-27T06:18:43;3.00;99.90
4453;DHT22;2239;48.152;11.584;2024-01-27T06:21:10;3.00;99.90
4453;DHT22;2239;48.152;11.584;2024-01-27T06:23:36;2.90;99.90
4453;DHT22;2239;48.152;11.584;2024-01-27T06:26:08;2.90;99.90
4453;DHT22;2239;48.152;11.584;2024-01-27T06:28:33;2.90;99.90
4453;DHT22;2239;48.152;11.584;2024-01-27T06:31:00;2.90;99.90
4453;DHT22;2239;48.152;11.584;2024-01-27T06:33:26;2.90;99.90
4453;DHT22;2239;48.152;11.584;2024-01-27T06:35:52;2.90;99.90
4453;DHT22;2239;48.152;11.584;2024-01-27T06:38:17;2.90;99.90
4453;DHT22;2239;48.152;11.584;2024-01-27T06:40:43;2.90;99.90
4453;DHT22;2239;48.152;11.584;2024-01-27T06:43:11;2.90;99.90
4453;DHT22;2239;48.152;11.584;2024-01-27T06:45:37;2.90;99.90
4453;DHT22;2239;48.152;11.584;2024-01-27T06:48:03;2.80;99.90
4453;DHT22;2239;48.152;11.584;2024-01-27T06:50:29;2.80;99.90
4453;DHT22;2239;48.152;11.584;2024-01-27T06:52:54;2.90;99.90
4453;DHT22;2239;48.152;11.584;2024-01-27T06:55:20;2.90;99.90
4453;DHT22;2239;48.152;11.584;2024-01-27T06:57:45;2.90;99.90
4453;DHT22;2239;48.152;11.584;2024-01-27T07:00:12;2.90;99.90
4453;DHT22;2239;48.152;11.584;2024-01-27T07:02:40;2.90;99.90
4453;DHT22;2239;48.152;11.584;2024-01-27T07:05:06;3.20;99.90
4453;DHT22;2239;48.152;11.584;2024-01-27T07:07:33;3.90;99.90
4453;DHT22;2239;48.152;11.584;2024-01-27T07:09:58;4.80;99.90
4453;DHT22;2239;48.152;11.584;2024-01-27T07:12:24;5.90;99.90
4453;DHT22;2239;48.152;11.584;2024-01-27T07:14:50;7.00;99.90
4453;DHT22;2239;48.152;11.584;2024-01-27T07:17:16;8.20;98.90
4453;DHT22;2239;48.152;11.584;2024-01-27T07:19:42;9.20;95.90
4453;DHT22;2239;48.152;11.584;2024-01-27T07:22:08;10.50;94.00
4453;DHT22;2239;48.152;11.584;2024-01-27T07:24:33;11.80;90.30
4453;DHT22;2239;48.152;11.584;2024-01-27T07:27:02;13.00;84.90
4453;DHT22;2239;48.152;11.584;2024-01-27T07:29:29;14.30;78.20
4453;DHT22;2239;48.152;11.584;2024-01-27T07:31:54;15.10;72.00
4453;DHT22;2239;48.152;11.584;2024-01-27T07:34:20;16.10;66.10
4453;DHT22;2239;48.152;11.584;2024-01-27T07:36:46;16.70;60.30
4453;DHT22;2239;48.152;11.584;2024-01-27T07:39:13;17.30;56.70
4453;DHT22;2239;48.152;11.584;2024-01-27T07:41:39;17.90;53.50
4453;DHT22;2239;48.152;11.584;2024-01-27T07:44:09;18.70;50.90
4453;DHT22;2239;48.152;11.584;2024-01-27T07:46:35;19.30;48.10
4453;DHT22;2239;48.152;11.584;2024-01-27T07:49:01;19.80;45.80
4453;DHT22;2239;48.152;11.584;2024-01-27T07:51:28;20.40;43.00
4453;DHT22;2239;48.152;11.584;2024-01-27T07:53:53;20.40;41.10
4453;DHT22;2239;48.152;11.584;2024-01-27T07:56:19;20.90;39.70
4453;DHT22;2239;48.152;11.584;2024-01-27T07:58:44;21.40;38.50
4453;DHT22;2239;48.152;11.584;2024-01-27T08:01:13;21.70;36.80
4453;DHT22;2239;48.152;11.584;2024-01-27T08:03:39;21.10;36.30
4453;DHT22;2239;48.152;11.584;2024-01-27T08:06:05;21.30;36.10
4453;DHT22;2239;48.152;11.584;2024-01-27T08:08:32;21.40;35.50
4453;DHT22;2239;48.152;11.584;2024-01-27T08:10:58;21.70;34.60
4453;DHT22;2239;48.152;11.584;2024-01-27T08:13:23;21.70;33.90
4453;DHT22;2239;48.152;11.584;2024-01-27T08:15:49;21.90;33.40
4453;DHT22;2239;48.152;11.584;2024-01-27T08:18:15;22.40;32.50
4453;DHT22;2239;48.152;11.584;2024-01-27T08:20:40;22.40;32.20
4453;DHT22;2239;48.152;11.584;2024-01-27T08:23:06;22.30;32.00
4453;DHT22;2239;48.152;11.584;2024-01-27T08:25:31;22.40;31.40
4453;DHT22;2239;48.152;11.584;2024-01-27T08:27:57;22.20;31.00
4453;DHT22;2239;48.152;11.584;2024-01-27T08:30:22;21.90;31.20
4453;DHT22;2239;48.152;11.584;2024-01-27T08:32:48;21.70;31.60
4453;DHT22;2239;48.152;11.584;2024-01-27T08:35:13;21.90;31.10
4453;DHT22;2239;48.152;11.584;2024-01-27T08:37:39;21.40;31.90
4453;DHT22;2239;48.152;11.584;2024-01-27T08:40:05;21.90;31.70
4453;DHT22;2239;48.152;11.584;2024-01-27T08:42:31;21.90;32.10
4453;DHT22;2239;48.152;11.584;2024-01-27T08:44:57;22.00;31.10
4453;DHT22;2239;48.152;11.584;2024-01-27T08:47:22;21.80;30.40
4453;DHT22;2239;48.152;11.584;2024-01-27T08:49:48;21.50;31.10
4453;DHT22;2239;48.152;11.584;2024-01-27T08:52:13;21.20;31.70
4453;DHT22;2239;48.152;11.584;2024-01-27T08:54:39;21.10;31.70
4453;DHT22;2239;48.152;11.584;2024-01-27T08:57:04;21.10;31.70
4453;DHT22;2239;48.152;11.584;2024-01-27T08:59:30;21.00;32.00
4453;DHT22;2239;48.152;11.584;2024-01-27T09:01:55;21.10;32.20
4453;DHT22;2239;48.152;11.584;2024-01-27T09:04:21;20.60;32.00
4453;DHT22;2239;48.152;11.584;2024-01-27T09:06:46;20.70;32.60
4453;DHT22;2239;48.152;11.584;2024-01-27T09:09:12;20.70;32.40
4453;DHT22;2239;48.152;11.584;2024-01-27T09:11:38;20.10;32.60
4453;DHT22;2239;48.152;11.584;2024-01-27T09:14:04;19.50;33.70
4453;DHT22;2239;48.152;11.584;2024-01-27T09:16:32;19.60;34.60
4453;DHT22;2239;48.152;11.584;2024-01-27T09:18:58;19.60;36.20
4453;DHT22;2239;48.152;11.584;2024-01-27T09:21:23;19.30;34.60
4453;DHT22;2239;48.152;11.584;2024-01-27T09:23:54;19.40;35.20
4453;DHT22;2239;48.152;11.584;2024-01-27T09:26:20;19.40;35.10
4453;DHT22;2239;48.152;11.584;2024-01-27T09:28:45;19.00;35.70
4453;DHT22;2239;48.152;11.584;2024-01-27T09:31:20;19.10;36.30
4453;DHT22;2239;48.152;11.584;2024-01-27T09:33:48;19.20;36.10
4453;DHT22;2239;48.152;11.584;2024-01-27T09:36:13;19.30;35.50
4453;DHT22;2239;48.152;11.584;2024-01-27T09:38:39;19.60;35.80
4453;DHT22;2239;48.152;11.584;2024-01-27T09:41:04;19.50;34.70
4453;DHT22;2239;48.152;11.584;2024-01-27T09:43:31;19.40;35.60
4453;DHT22;2239;48.152;11.584;2024-01-27T09:45:56;19.60;35.50
4453;DHT22;2239;48.152;11.584;2024-01-27T09:48:22;19.50;35.30
4453;DHT22;2239;48.152;11.584;2024-01-27T09:50:49;19.40;35.00
4453;DHT22;2239;48.152;11.584;2024-01-27T09:53:15;19.50;34.90
4453;DHT22;2239;48.152;11.584;2024-01-27T09:55:43;19.50;35.10
4453;DHT22;2239;48.152;11.584;2024-01-27T09:58:09;19.30;35.10
4453;DHT22;2239;48.152;11.584;2024-01-27T10:00:35;18.80;35.30
4453;DHT22;2239;48.152;11.584;2024-01-27T10:03:03;18.50;35.70
4453;DHT22;2239;48.152;11.584;2024-01-27T10:05:29;18.20;36.30
4453;DHT22;2239;48.152;11.584;2024-01-27T10:07:55;18.40;36.90
4453;DHT22;2239;48.152;11.584;2024-01-27T10:10:21;18.70;36.70
4453;DHT22;2239;48.152;11.584;2024-01-27T10:12:48;19.00;35.60
4453;DHT22;2239;48.152;11.584;2024-01-27T10:15:20;19.20;35.30
4453;DHT22;2239;48.152;11.584;2024-01-27T10:17:46;19.20;35.00
4453;DHT22;2239;48.152;11.584;2024-01-27T10:20:12;19.50;35.20
4453;DHT22;2239;48.152;11.584;2024-01-27T10:22:46;19.30;34.30
4453;DHT22;2239;48.152;11.584;2024-01-27T10:25:12;19.60;34.50
4453;DHT22;2239;48.152;11.584;2024-01-27T10:27:38;19.80;33.90
4453;DHT22;2239;48.152;11.584;2024-01-27T10:30:05;19.40;33.70
4453;DHT22;2239;48.152;11.584;2024-01-27T10:32:32;19.30;34.50
4453;DHT22;2239;48.152;11.584;2024-01-27T10:35:08;19.20;34.50
4453;DHT22;2239;48.152;11.584;2024-01-27T10:37:34;19.40;34.50
4453;DHT22;2239;48.152;11.584;2024-01-27T10:40:07;19.20;33.80
4453;DHT22;2239;48.152;11.584;2024-01-27T10:42:38;19.50;34.80
4453;DHT22;2239;48.152;11.584;2024-01-27T10:45:04;19.20;34.60
4453;DHT22;2239;48.152;11.584;2024-01-27T10:47:32;19.30;33.90
4453;DHT22;2239;48.152;11.584;2024-01-27T10:49:58;19.30;34.80
4453;DHT22;2239;48.152;11.584;2024-01-27T10:52:28;19.30;34.20
4453;DHT22;2239;48.152;11.584;2024-01-27T10:55:01;19.20;34.00
4453;DHT22;2239;48.152;11.584;2024-01-27T10:57:30;19.30;35.50
4453;DHT22;2239;48.152;11.584;2024-01-27T10:59:57;19.20;34.60
4453;DHT22;2239;48.152;11.584;2024-01-27T11:02:23;19.40;34.80
4453;DHT22;2239;48.152;11.584;2024-01-27T11:04:51;19.50;34.20
4453;DHT22;2239;48.152;11.584;2024-01-27T11:07:19;19.80;34.20
4453;DHT22;2239;48.152;11.584;2024-01-27T11:09:49;20.10;33.20
4453;DHT22;2239;48.152;11.584;2024-01-27T11:12:17;18.90;31.80
4453;DHT22;2239;48.152;11.584;2024-01-27T11:14:43;17.70;33.20
4453;DHT22;2239;48.152;11.584;2024-01-27T11:17:10;17.70;35.40
4453;DHT22;2239;48.152;11.584;2024-01-27T11:19:36;18.00;34.90
4453;DHT22;2239;48.152;11.584;2024-01-27T11:22:05;18.40;34.80
4453;DHT22;2239;48.152;11.584;2024-01-27T11:24:31;18.50;33.60
4453;DHT22;2239;48.152;11.584;2024-01-27T11:27:14;19.10;33.70
4453;DHT22;2239;48.152;11.584;2024-01-27T11:29:47;19.30;33.00
4453;DHT22;2239;48.152;11.584;2024-01-27T11:32:15;19.60;33.10
4453;DHT22;2239;48.152;11.584;2024-01-27T11:34:45;20.20;32.90
4453;DHT22;2239;48.152;11.584;2024-01-27T11:37:15;20.40;31.20
4453;DHT22;2239;48.152;11.584;2024-01-27T11:39:40;19.70;31.70
4453;DHT22;2239;48.152;11.584;2024-01-27T11:42:07;19.60;32.40
4453;DHT22;2239;48.152;11.584;2024-01-27T11:44:36;19.30;33.00
4453;DHT22;2239;48.152;11.584;2024-01-27T11:47:02;19.20;31.70
4453;DHT22;2239;48.152;11.584;2024-01-27T11:49:28;19.40;32.20
4453;DHT22;2239;48.152;11.584;2024-01-27T11:51:54;19.70;30.40
4453;DHT22;2239;48.152;11.584;2024-01-27T11:54:20;19.80;30.10
4453;DHT22;2239;48.152;11.584;2024-01-27T11:56:46;20.10;29.00
4453;DHT22;2239;48.152;11.584;2024-01-27T11:59:11;20.20;29.70
4453;DHT22;2239;48.152;11.584;2024-01-27T12:01:37;20.30;29.70
4453;DHT22;2239;48.152;11.584;2024-01-27T12:04:07;20.50;31.10
4453;DHT22;2239;48.152;11.584;2024-01-27T12:06:33;20.60;30.00
4453;DHT22;2239;48.152;11.584;2024-01-27T12:08:58;21.40;30.00
4453;DHT22;2239;48.152;11.584;2024-01-27T12:11:25;20.60;28.80
4453;DHT22;2239;48.152;11.584;2024-01-27T12:13:51;20.80;30.30
4453;DHT22;2239;48.152;11.584;2024-01-27T12:16:17;21.00;29.50
4453;DHT22;2239;48.152;11.584;2024-01-27T12:18:46;21.00;29.30
4453;DHT22;2239;48.152;11.584;2024-01-27T12:21:12;20.90;28.60
4453;DHT22;2239;48.152;11.584;2024-01-27T12:23:50;20.70;28.50
4453;DHT22;2239;48.152;11.584;2024-01-27T12:26:15;20.30;28.20
4453;DHT22;2239;48.152;11.584;2024-01-27T12:28:41;19.90;28.10
4453;DHT22;2239;48.152;11.584;2024-01-27T12:31:06;19.90;29.30
4453;DHT22;2239;48.152;11.584;2024-01-27T12:33:32;19.90;30.00
4453;DHT22;2239;48.152;11.584;2024-01-27T12:35:58;20.00;29.30
4453;DHT22;2239;48.152;11.584;2024-01-27T12:38:23;20.20;29.00
4453;DHT22;2239;48.152;11.584;2024-01-27T12:40:49;19.70;29.10
4453;DHT22;2239;48.152;11.584;2024-01-27T12:43:14;19.50;30.20
4453;DHT22;2239;48.152;11.584;2024-01-27T12:45:41;19.60;29.90
4453;DHT22;2239;48.152;11.584;2024-01-27T12:48:06;19.10;28.00
4453;DHT22;2239;48.152;11.584;2024-01-27T12:50:32;18.10;29.00
4453;DHT22;2239;48.152;11.584;2024-01-27T12:52:59;17.60;29.90
4453;DHT22;2239;48.152;11.584;2024-01-27T12:55:24;17.10;29.60
4453;DHT22;2239;48.152;11.584;2024-01-27T12:57:50;16.90;31.20
4453;DHT22;2239;48.152;11.584;2024-01-27T13:00:16;16.50;31.40
4453;DHT22;2239;48.152;11.584;2024-01-27T13:02:42;16.40;31.90
4453;DHT22;2239;48.152;11.584;2024-01-27T13:05:08;16.10;32.00
4453;DHT22;2239;48.152;11.584;2024-01-27T13:07:34;16.10;32.60
4453;DHT22;2239;48.152;11.584;2024-01-27T13:10:00;15.60;32.60
4453;DHT22;2239;48.152;11.584;2024-01-27T13:12:26;15.00;34.60
4453;DHT22;2239;48.152;11.584;2024-01-27T13:14:52;15.10;38.60
4453;DHT22;2239;48.152;11.584;2024-01-27T13:17:17;15.50;38.80
4453;DHT22;2239;48.152;11.584;2024-01-27T13:19:44;15.70;36.70
4453;DHT22;2239;48.152;11.584;2024-01-27T13:22:11;15.60;34.30
4453;DHT22;2239;48.152;11.584;2024-01-27T13:24:37;15.60;35.20
4453;DHT22;2239;48.152;11.584;2024-01-27T13:27:03;15.60;36.50
4453;DHT22;2239;48.152;11.584;2024-01-27T13:29:29;15.50;37.40
4453;DHT22;2239;48.152;11.584;2024-01-27T13:31:55;15.30;36.90
4453;DHT22;2239;48.152;11.584;2024-01-27T13:34:22;15.10;38.30
4453;DHT22;2239;48.152;11.584;2024-01-27T13:36:47;15.50;37.60
4453;DHT22;2239;48.152;11.584;2024-01-27T13:39:13;15.50;37.10
4453;DHT22;2239;48.152;11.584;2024-01-27T13:41:39;15.10;32.40
4453;DHT22;2239;48.152;11.584;2024-01-27T13:44:04;14.20;32.20
4453;DHT22;2239;48.152;11.584;2024-01-27T13:46:31;13.50;33.20
4453;DHT22;2239;48.152;11.584;2024-01-27T13:48:56;13.30;34.70
4453;DHT22;2239;48.152;11.584;2024-01-27T13:51:22;13.50;35.50
4453;DHT22;2239;48.152;11.584;2024-01-27T13:53:47;13.80;36.80
4453;DHT22;2239;48.152;11.584;2024-01-27T13:56:14;13.70;34.80
4453;DHT22;2239;48.152;11.584;2024-01-27T13:58:39;14.00;37.50
4453;DHT22;2239;48.152;11.584;2024-01-27T14:01:06;14.00;35.30
4453;DHT22;2239;48.152;11.584;2024-01-27T14:03:31;14.20;35.80
4453;DHT22;2239;48.152;11.584;2024-01-27T14:05:57;14.20;36.20
4453;DHT22;2239;48.152;11.584;2024-01-27T14:08:22;13.90;34.60
4453;DHT22;2239;48.152;11.584;2024-01-27T14:10:48;14.10;39.90
4453;DHT22;2239;48.152;11.584;2024-01-27T14:13:15;14.30;37.40
4453;DHT22;2239;48.152;11.584;2024-01-27T14:15:41;14.20;37.20
4453;DHT22;2239;48.152;11.584;2024-01-27T14:18:06;14.00;37.50
4453;DHT22;2239;48.152;11.584;2024-01-27T14:20:32;13.90;37.40
4453;DHT22;2239;48.152;11.584;2024-01-27T14:23:03;13.60;36.80
4453;DHT22;2239;48.152;11.584;2024-01-27T14:25:29;13.40;37.80
4453;DHT22;2239;48.152;11.584;2024-01-27T14:27:54;13.40;38.60
4453;DHT22;2239;48.152;11.584;2024-01-27T14:30:20;13.60;41.10
4453;DHT22;2239;48.152;11.584;2024-01-27T14:32:46;13.40;37.10
4453;DHT22;2239;48.152;11.584;2024-01-27T14:35:11;13.20;38.30
4453;DHT22;2239;48.152;11.584;2024-01-27T14:37:37;12.80;38.10
4453;DHT22;2239;48.152;11.584;2024-01-27T14:40:04;12.30;39.50
4453;DHT22;2239;48.152;11.584;2024-01-27T14:42:30;11.80;39.20
4453;DHT22;2239;48.152;11.584;2024-01-27T14:44:56;11.80;43.80
4453;DHT22;2239;48.152;11.584;2024-01-27T14:47:22;11.70;42.50
4453;DHT22;2239;48.152;11.584;2024-01-27T14:49:47;11.70;42.70
4453;DHT22;2239;48.152;11.584;2024-01-27T14:52:13;11.40;42.20
4453;DHT22;2239;48.152;11.584;2024-01-27T14:54:39;11.10;43.20
4453;DHT22;2239;48.152;11.584;2024-01-27T14:57:05;10.90;44.80
4453;DHT22;2239;48.152;11.584;2024-01-27T14:59:34;11.00;47.30
4453;DHT22;2239;48.152;11.584;2024-01-27T15:02:00;10.50;46.60
4453;DHT22;2239;48.152;11.584;2024-01-27T15:04:26;10.60;50.20
4453;DHT22;2239;48.152;11.584;2024-01-27T15:06:55;10.70;51.40
4453;DHT22;2239;48.152;11.584;2024-01-27T15:09:22;10.90;51.20
4453;DHT22;2239;48.152;11.584;2024-01-27T15:11:49;10.80;50.80
4453;DHT22;2239;48.152;11.584;2024-01-27T15:14:14;10.90;53.60
4453;DHT22;2239;48.152;11.584;2024-01-27T15:16:40;11.10;53.00
4453;DHT22;2239;48.152;11.584;2024-01-27T15:19:06;11.30;51.30
4453;DHT22;2239;48.152;11.584;2024-01-27T15:21:32;11.10;51.00
4453;DHT22;2239;48.152;11.584;2024-01-27T15:23:58;10.90;51.00
4453;DHT22;2239;48.152;11.584;2024-01-27T15:26:23;10.50;50.70
4453;DHT22;2239;48.152;11.584;2024-01-27T15:28:49;10.00;51.50
4453;DHT22;2239;48.152;11.584;2024-01-27T15:31:15;9.50;53.90
4453;DHT22;2239;48.152;11.584;2024-01-27T15:33:40;9.30;55.20
4453;DHT22;2239;48.152;11.584;2024-01-27T15:36:07;9.00;55.70
4453;DHT22;2239;48.152;11.584;2024-01-27T15:38:33;8.80;57.40
4453;DHT22;2239;48.152;11.584;2024-01-27T15:40:58;8.60;58.20
4453;DHT22;2239;48.152;11.584;2024-01-27T15:43:24;8.40;58.60
4453;DHT22;2239;48.152;11.584;2024-01-27T15:45:50;8.30;59.70
4453;DHT22;2239;48.152;11.584;2024-01-27T15:48:18;8.30;60.40